MMAS/AGU METAR and TAF weather

Enter ICAO airport designator
Station Type Date Time Source
MMAS METAR 2024/04/18 05:46 UTC NOAA

MMAS 180546Z 31002KT 8SM SCT100 BKN200 23/M02 A3019 RMK SLP032 5//// 9// 8/088 HZY


Station Type Date Time Source
MMAS Decoded METAR 2024/04/18 05:46 UTC NOAA

Aguascalientes, Ags., Mexico (MMAS) 21-53N 102-18W
Apr 18, 2024 - 01:46 AM EDT / 2024.04.18 0546 UTC
Wind: from the NW (310 degrees) at 2 MPH (2 KT):0
Visibility: 8 mile(s):0
Sky conditions: mostly cloudy
Temperature: 73 F (23 C)
Dew Point: 28 F (-2 C)
Relative Humidity: 18%
Pressure (altimeter): 30.19 in. Hg (1022 hPa)
ob: MMAS 180546Z 31002KT 8SM SCT100 BKN200 23/M02 A3019 RMK SLP032 5//// 9// 8/088 HZY
cycle: 6

Station Type Date Time Source
MMAS TAF 2024/04/18 18:41 UTC NOAA